sensor_id;sensor_type;location;lat;lon;timestamp;P1;durP1;ratioP1;P2;durP2;ratioP2
29200;SDS011;16244;51.956;12.980;2022-07-04T00:01:13;3.80;;;1.13;;
29200;SDS011;16244;51.956;12.980;2022-07-04T00:03:41;6.00;;;1.20;;
29200;SDS011;16244;51.956;12.980;2022-07-04T00:06:08;4.40;;;1.27;;
29200;SDS011;16244;51.956;12.980;2022-07-04T00:08:35;7.83;;;1.70;;
29200;SDS011;16244;51.956;12.980;2022-07-04T00:11:02;4.40;;;1.30;;
29200;SDS011;16244;51.956;12.980;2022-07-04T00:13:29;4.90;;;1.57;;
29200;SDS011;16244;51.956;12.980;2022-07-04T00:15:56;9.10;;;1.23;;
29200;SDS011;16244;51.956;12.980;2022-07-04T00:18:25;7.67;;;1.40;;
29200;SDS011;16244;51.956;12.980;2022-07-04T00:20:52;11.40;;;1.73;;
29200;SDS011;16244;51.956;12.980;2022-07-04T00:23:19;9.50;;;1.80;;
29200;SDS011;16244;51.956;12.980;2022-07-04T00:25:46;6.67;;;1.70;;
29200;SDS011;16244;51.956;12.980;2022-07-04T00:28:13;5.60;;;1.40;;
29200;SDS011;16244;51.956;12.980;2022-07-04T00:30:41;5.50;;;1.40;;
29200;SDS011;16244;51.956;12.980;2022-07-04T00:33:10;12.70;;;1.87;;
29200;SDS011;16244;51.956;12.980;2022-07-04T00:35:39;18.10;;;2.00;;
29200;SDS011;16244;51.956;12.980;2022-07-04T00:38:06;6.90;;;1.77;;
29200;SDS011;16244;51.956;12.980;2022-07-04T00:40:34;8.20;;;1.60;;
29200;SDS011;16244;51.956;12.980;2022-07-04T00:43:01;8.47;;;2.30;;
29200;SDS011;16244;51.956;12.980;2022-07-04T00:45:29;8.10;;;1.70;;
29200;SDS011;16244;51.956;12.980;2022-07-04T00:47:56;6.43;;;1.87;;
29200;SDS011;16244;51.956;12.980;2022-07-04T00:50:24;10.80;;;1.63;;
29200;SDS011;16244;51.956;12.980;2022-07-04T00:52:53;8.30;;;1.60;;
29200;SDS011;16244;51.956;12.980;2022-07-04T00:55:21;7.97;;;1.40;;
29200;SDS011;16244;51.956;12.980;2022-07-04T00:57:49;9.70;;;1.97;;
29200;SDS011;16244;51.956;12.980;2022-07-04T01:00:16;13.17;;;1.83;;
29200;SDS011;16244;51.956;12.980;2022-07-04T01:02:45;11.30;;;2.17;;
29200;SDS011;16244;51.956;12.980;2022-07-04T01:05:13;9.90;;;2.10;;
29200;SDS011;16244;51.956;12.980;2022-07-04T01:07:41;10.37;;;1.97;;
29200;SDS011;16244;51.956;12.980;2022-07-04T01:10:10;11.77;;;1.83;;
29200;SDS011;16244;51.956;12.980;2022-07-04T01:12:37;11.10;;;1.97;;
29200;SDS011;16244;51.956;12.980;2022-07-04T01:15:05;13.77;;;2.20;;
29200;SDS011;16244;51.956;12.980;2022-07-04T01:17:33;6.57;;;1.70;;
29200;SDS011;16244;51.956;12.980;2022-07-04T01:20:00;7.03;;;1.70;;
29200;SDS011;16244;51.956;12.980;2022-07-04T01:22:29;8.13;;;2.10;;
29200;SDS011;16244;51.956;12.980;2022-07-04T01:24:56;10.20;;;2.50;;
29200;SDS011;16244;51.956;12.980;2022-07-04T01:27:23;7.50;;;2.03;;
29200;SDS011;16244;51.956;12.980;2022-07-04T01:29:50;14.00;;;2.20;;
29200;SDS011;16244;51.956;12.980;2022-07-04T01:32:17;7.00;;;2.27;;
29200;SDS011;16244;51.956;12.980;2022-07-04T01:34:45;7.80;;;2.43;;
29200;SDS011;16244;51.956;12.980;2022-07-04T01:37:12;9.87;;;2.00;;
29200;SDS011;16244;51.956;12.980;2022-07-04T01:39:41;9.30;;;2.40;;
29200;SDS011;16244;51.956;12.980;2022-07-04T01:42:08;18.57;;;2.00;;
29200;SDS011;16244;51.956;12.980;2022-07-04T01:44:35;8.03;;;2.03;;
29200;SDS011;16244;51.956;12.980;2022-07-04T01:47:03;7.80;;;2.27;;
29200;SDS011;16244;51.956;12.980;2022-07-04T01:49:31;5.97;;;2.00;;
29200;SDS011;16244;51.956;12.980;2022-07-04T01:51:58;5.30;;;2.07;;
29200;SDS011;16244;51.956;12.980;2022-07-04T01:54:25;5.43;;;2.00;;
29200;SDS011;16244;51.956;12.980;2022-07-04T01:56:54;9.17;;;2.57;;
29200;SDS011;16244;51.956;12.980;2022-07-04T01:59:21;8.63;;;1.93;;
29200;SDS011;16244;51.956;12.980;2022-07-04T02:02:08;10.23;;;1.70;;
29200;SDS011;16244;51.956;12.980;2022-07-04T02:04:35;14.17;;;2.27;;
29200;SDS011;16244;51.956;12.980;2022-07-04T02:07:02;14.13;;;2.37;;
29200;SDS011;16244;51.956;12.980;2022-07-04T02:09:29;14.97;;;2.20;;
29200;SDS011;16244;51.956;12.980;2022-07-04T02:11:58;14.83;;;1.57;;
29200;SDS011;16244;51.956;12.980;2022-07-04T02:14:43;11.23;;;1.50;;
29200;SDS011;16244;51.956;12.980;2022-07-04T02:17:10;11.97;;;1.87;;
29200;SDS011;16244;51.956;12.980;2022-07-04T02:19:37;11.13;;;1.70;;
29200;SDS011;16244;51.956;12.980;2022-07-04T02:22:05;11.53;;;1.70;;
29200;SDS011;16244;51.956;12.980;2022-07-04T02:24:32;13.93;;;1.90;;
29200;SDS011;16244;51.956;12.980;2022-07-04T02:27:00;19.90;;;1.93;;
29200;SDS011;16244;51.956;12.980;2022-07-04T02:29:27;14.70;;;1.73;;
29200;SDS011;16244;51.956;12.980;2022-07-04T02:31:55;12.03;;;2.00;;
29200;SDS011;16244;51.956;12.980;2022-07-04T02:34:22;14.70;;;1.40;;
29200;SDS011;16244;51.956;12.980;2022-07-04T02:36:49;14.60;;;1.60;;
29200;SDS011;16244;51.956;12.980;2022-07-04T02:39:17;16.20;;;1.87;;
29200;SDS011;16244;51.956;12.980;2022-07-04T02:41:44;20.03;;;2.10;;
29200;SDS011;16244;51.956;12.980;2022-07-04T02:44:12;24.33;;;2.20;;
29200;SDS011;16244;51.956;12.980;2022-07-04T02:46:39;19.93;;;2.13;;
29200;SDS011;16244;51.956;12.980;2022-07-04T02:49:06;23.03;;;2.37;;
29200;SDS011;16244;51.956;12.980;2022-07-04T02:51:34;27.60;;;2.60;;
29200;SDS011;16244;51.956;12.980;2022-07-04T02:54:01;20.30;;;2.73;;
29200;SDS011;16244;51.956;12.980;2022-07-04T02:56:28;21.30;;;2.50;;
29200;SDS011;16244;51.956;12.980;2022-07-04T02:58:55;19.80;;;2.63;;
29200;SDS011;16244;51.956;12.980;2022-07-04T03:01:24;25.63;;;2.60;;
29200;SDS011;16244;51.956;12.980;2022-07-04T03:03:51;23.67;;;3.00;;
29200;SDS011;16244;51.956;12.980;2022-07-04T03:06:18;18.30;;;2.30;;
29200;SDS011;16244;51.956;12.980;2022-07-04T03:08:45;19.77;;;3.00;;
29200;SDS011;16244;51.956;12.980;2022-07-04T03:11:12;19.40;;;3.47;;
29200;SDS011;16244;51.956;12.980;2022-07-04T03:13:39;20.70;;;2.87;;
29200;SDS011;16244;51.956;12.980;2022-07-04T03:16:07;17.97;;;2.90;;
29200;SDS011;16244;51.956;12.980;2022-07-04T03:18:37;17.93;;;3.00;;
29200;SDS011;16244;51.956;12.980;2022-07-04T03:21:04;17.60;;;2.83;;
29200;SDS011;16244;51.956;12.980;2022-07-04T03:23:32;17.90;;;3.30;;
29200;SDS011;16244;51.956;12.980;2022-07-04T03:26:01;19.40;;;3.40;;
29200;SDS011;16244;51.956;12.980;2022-07-04T03:28:28;20.00;;;3.40;;
29200;SDS011;16244;51.956;12.980;2022-07-04T03:30:56;18.30;;;3.70;;
29200;SDS011;16244;51.956;12.980;2022-07-04T03:33:24;19.57;;;4.00;;
29200;SDS011;16244;51.956;12.980;2022-07-04T03:35:52;18.43;;;3.80;;
29200;SDS011;16244;51.956;12.980;2022-07-04T03:38:19;22.90;;;4.57;;
29200;SDS011;16244;51.956;12.980;2022-07-04T03:40:47;20.90;;;4.30;;
29200;SDS011;16244;51.956;12.980;2022-07-04T03:43:14;22.17;;;4.77;;
29200;SDS011;16244;51.956;12.980;2022-07-04T03:45:41;19.40;;;4.33;;
29200;SDS011;16244;51.956;12.980;2022-07-04T03:48:08;21.87;;;4.10;;
29200;SDS011;16244;51.956;12.980;2022-07-04T03:50:35;20.00;;;3.77;;
29200;SDS011;16244;51.956;12.980;2022-07-04T03:53:04;26.93;;;4.03;;
29200;SDS011;16244;51.956;12.980;2022-07-04T03:55:31;19.80;;;3.30;;
29200;SDS011;16244;51.956;12.980;2022-07-04T03:57:58;19.63;;;3.33;;
29200;SDS011;16244;51.956;12.980;2022-07-04T04:00:25;20.30;;;2.70;;
29200;SDS011;16244;51.956;12.980;2022-07-04T04:02:52;27.40;;;3.33;;
29200;SDS011;16244;51.956;12.980;2022-07-04T04:05:19;23.40;;;2.57;;
29200;SDS011;16244;51.956;12.980;2022-07-04T04:07:56;23.70;;;2.67;;
29200;SDS011;16244;51.956;12.980;2022-07-04T04:10:26;26.50;;;2.87;;
29200;SDS011;16244;51.956;12.980;2022-07-04T04:12:56;26.17;;;2.80;;
29200;SDS011;16244;51.956;12.980;2022-07-04T04:15:23;25.47;;;2.83;;
29200;SDS011;16244;51.956;12.980;2022-07-04T04:17:51;26.80;;;2.73;;
29200;SDS011;16244;51.956;12.980;2022-07-04T04:20:18;26.03;;;2.33;;
29200;SDS011;16244;51.956;12.980;2022-07-04T04:22:45;33.60;;;2.83;;
29200;SDS011;16244;51.956;12.980;2022-07-04T04:25:12;27.03;;;2.50;;
29200;SDS011;16244;51.956;12.980;2022-07-04T04:27:41;27.00;;;2.80;;
29200;SDS011;16244;51.956;12.980;2022-07-04T04:30:08;28.43;;;2.60;;
29200;SDS011;16244;51.956;12.980;2022-07-04T04:32:36;28.73;;;2.50;;
29200;SDS011;16244;51.956;12.980;2022-07-04T04:35:04;28.17;;;2.97;;
29200;SDS011;16244;51.956;12.980;2022-07-04T04:37:31;29.73;;;2.83;;
29200;SDS011;16244;51.956;12.980;2022-07-04T04:39:58;28.43;;;2.80;;
29200;SDS011;16244;51.956;12.980;2022-07-04T04:42:25;38.43;;;6.97;;
29200;SDS011;16244;51.956;12.980;2022-07-04T04:44:54;40.33;;;9.37;;
29200;SDS011;16244;51.956;12.980;2022-07-04T04:47:21;32.63;;;2.77;;
29200;SDS011;16244;51.956;12.980;2022-07-04T04:49:48;34.13;;;2.73;;
29200;SDS011;16244;51.956;12.980;2022-07-04T04:52:16;36.13;;;2.27;;
29200;SDS011;16244;51.956;12.980;2022-07-04T04:54:43;33.10;;;2.03;;
29200;SDS011;16244;51.956;12.980;2022-07-04T04:57:10;33.60;;;2.00;;
29200;SDS011;16244;51.956;12.980;2022-07-04T04:59:37;39.87;;;4.97;;
29200;SDS011;16244;51.956;12.980;2022-07-04T05:02:05;38.23;;;2.50;;
29200;SDS011;16244;51.956;12.980;2022-07-04T05:04:33;43.50;;;3.00;;
29200;SDS011;16244;51.956;12.980;2022-07-04T05:07:00;39.53;;;2.27;;
29200;SDS011;16244;51.956;12.980;2022-07-04T05:09:27;44.27;;;3.13;;
29200;SDS011;16244;51.956;12.980;2022-07-04T05:11:54;39.40;;;2.97;;
29200;SDS011;16244;51.956;12.980;2022-07-04T05:14:22;42.80;;;2.53;;
29200;SDS011;16244;51.956;12.980;2022-07-04T05:16:49;52.00;;;5.10;;
29200;SDS011;16244;51.956;12.980;2022-07-04T05:19:17;58.97;;;6.00;;
29200;SDS011;16244;51.956;12.980;2022-07-04T05:21:44;146.03;;;122.83;;
29200;SDS011;16244;51.956;12.980;2022-07-04T05:24:12;609.67;;;560.47;;
29200;SDS011;16244;51.956;12.980;2022-07-04T05:26:39;168.30;;;149.97;;
29200;SDS011;16244;51.956;12.980;2022-07-04T05:29:06;398.50;;;363.90;;
29200;SDS011;16244;51.956;12.980;2022-07-04T05:31:33;183.87;;;163.83;;
29200;SDS011;16244;51.956;12.980;2022-07-04T05:34:00;330.23;;;300.17;;
29200;SDS011;16244;51.956;12.980;2022-07-04T05:36:29;867.70;;;793.20;;
29200;SDS011;16244;51.956;12.980;2022-07-04T05:38:57;164.97;;;146.93;;
29200;SDS011;16244;51.956;12.980;2022-07-04T05:41:24;544.43;;;498.87;;
29200;SDS011;16244;51.956;12.980;2022-07-04T05:43:51;312.87;;;284.07;;
29200;SDS011;16244;51.956;12.980;2022-07-04T05:46:18;891.03;;;815.03;;
29200;SDS011;16244;51.956;12.980;2022-07-04T05:48:46;1236.10;;;999.90;;
29200;SDS011;16244;51.956;12.980;2022-07-04T05:51:13;2266.67;;;999.90;;
29200;SDS011;16244;51.956;12.980;2022-07-04T05:53:41;2266.67;;;999.90;;
29200;SDS011;16244;51.956;12.980;2022-07-04T05:56:08;2266.67;;;999.90;;
29200;SDS011;16244;51.956;12.980;2022-07-04T05:58:35;2266.67;;;999.90;;
29200;SDS011;16244;51.956;12.980;2022-07-04T06:01:02;2266.67;;;999.90;;
29200;SDS011;16244;51.956;12.980;2022-07-04T06:03:29;2266.67;;;999.90;;
29200;SDS011;16244;51.956;12.980;2022-07-04T06:05:57;2266.67;;;999.90;;
29200;SDS011;16244;51.956;12.980;2022-07-04T06:08:24;2266.67;;;999.90;;
29200;SDS011;16244;51.956;12.980;2022-07-04T06:10:52;2266.67;;;999.90;;
29200;SDS011;16244;51.956;12.980;2022-07-04T06:13:19;2266.67;;;999.90;;
29200;SDS011;16244;51.956;12.980;2022-07-04T06:15:46;2266.67;;;999.90;;
29200;SDS011;16244;51.956;12.980;2022-07-04T06:18:13;2266.67;;;999.90;;
29200;SDS011;16244;51.956;12.980;2022-07-04T06:20:41;2266.67;;;999.90;;
29200;SDS011;16244;51.956;12.980;2022-07-04T06:23:08;2266.67;;;999.90;;
29200;SDS011;16244;51.956;12.980;2022-07-04T06:25:35;2266.67;;;999.90;;
29200;SDS011;16244;51.956;12.980;2022-07-04T06:28:04;2266.67;;;999.90;;
29200;SDS011;16244;51.956;12.980;2022-07-04T06:30:31;2266.67;;;999.90;;
29200;SDS011;16244;51.956;12.980;2022-07-04T06:32:58;2266.67;;;999.90;;
29200;SDS011;16244;51.956;12.980;2022-07-04T06:35:26;2266.67;;;999.90;;
29200;SDS011;16244;51.956;12.980;2022-07-04T06:38:12;2266.67;;;999.90;;
29200;SDS011;16244;51.956;12.980;2022-07-04T06:40:41;2266.67;;;999.90;;
29200;SDS011;16244;51.956;12.980;2022-07-04T06:43:10;2266.67;;;999.90;;
29200;SDS011;16244;51.956;12.980;2022-07-04T06:45:38;2266.67;;;999.90;;
29200;SDS011;16244;51.956;12.980;2022-07-04T06:48:05;2266.67;;;999.90;;
29200;SDS011;16244;51.956;12.980;2022-07-04T06:50:33;2266.67;;;999.90;;
29200;SDS011;16244;51.956;12.980;2022-07-04T06:53:02;2266.67;;;999.90;;
29200;SDS011;16244;51.956;12.980;2022-07-04T06:55:30;2266.67;;;999.90;;
29200;SDS011;16244;51.956;12.980;2022-07-04T06:57:58;2266.67;;;999.90;;
29200;SDS011;16244;51.956;12.980;2022-07-04T07:00:26;2266.67;;;999.90;;
29200;SDS011;16244;51.956;12.980;2022-07-04T07:02:56;2266.67;;;999.90;;
29200;SDS011;16244;51.956;12.980;2022-07-04T07:05:23;2266.67;;;999.90;;
29200;SDS011;16244;51.956;12.980;2022-07-04T07:07:51;2266.67;;;999.90;;
29200;SDS011;16244;51.956;12.980;2022-07-04T07:10:18;2266.67;;;999.90;;
29200;SDS011;16244;51.956;12.980;2022-07-04T07:12:45;2266.67;;;999.90;;
29200;SDS011;16244;51.956;12.980;2022-07-04T07:15:12;2266.67;;;999.90;;
29200;SDS011;16244;51.956;12.980;2022-07-04T07:17:43;2266.67;;;999.90;;
29200;SDS011;16244;51.956;12.980;2022-07-04T07:20:10;2266.67;;;999.90;;
29200;SDS011;16244;51.956;12.980;2022-07-04T07:22:39;2266.67;;;999.90;;
29200;SDS011;16244;51.956;12.980;2022-07-04T07:25:07;422.83;;;380.17;;
29200;SDS011;16244;51.956;12.980;2022-07-04T07:27:35;1164.57;;;999.90;;
29200;SDS011;16244;51.956;12.980;2022-07-04T07:30:02;692.30;;;632.53;;
29200;SDS011;16244;51.956;12.980;2022-07-04T07:32:30;810.70;;;745.50;;
29200;SDS011;16244;51.956;12.980;2022-07-04T07:34:58;10.20;;;1.97;;
29200;SDS011;16244;51.956;12.980;2022-07-04T07:37:25;9.00;;;0.60;;
29200;SDS011;16244;51.956;12.980;2022-07-04T07:39:53;8.97;;;0.60;;
29200;SDS011;16244;51.956;12.980;2022-07-04T07:42:20;95.87;;;85.97;;
29200;SDS011;16244;51.956;12.980;2022-07-04T07:44:49;21.47;;;2.37;;
29200;SDS011;16244;51.956;12.980;2022-07-04T07:47:16;12.30;;;1.07;;
29200;SDS011;16244;51.956;12.980;2022-07-04T07:49:43;4.07;;;0.60;;
29200;SDS011;16244;51.956;12.980;2022-07-04T07:52:14;3.63;;;0.60;;
29200;SDS011;16244;51.956;12.980;2022-07-04T07:54:42;7.40;;;0.70;;
29200;SDS011;16244;51.956;12.980;2022-07-04T07:57:10;3.03;;;0.60;;
29200;SDS011;16244;51.956;12.980;2022-07-04T07:59:37;3.33;;;0.50;;
29200;SDS011;16244;51.956;12.980;2022-07-04T08:02:04;2.50;;;0.50;;
29200;SDS011;16244;51.956;12.980;2022-07-04T08:04:31;4.38;;;0.70;;
29200;SDS011;16244;51.956;12.980;2022-07-04T08:07:00;2.33;;;0.80;;
29200;SDS011;16244;51.956;12.980;2022-07-04T08:09:29;20.50;;;1.00;;
29200;SDS011;16244;51.956;12.980;2022-07-04T08:11:56;15.77;;;0.87;;
29200;SDS011;16244;51.956;12.980;2022-07-04T08:14:23;17.23;;;1.20;;
29200;SDS011;16244;51.956;12.980;2022-07-04T08:16:51;16.30;;;0.70;;
29200;SDS011;16244;51.956;12.980;2022-07-04T08:19:18;18.20;;;0.90;;
29200;SDS011;16244;51.956;12.980;2022-07-04T08:21:45;19.20;;;1.17;;
29200;SDS011;16244;51.956;12.980;2022-07-04T08:24:13;299.50;;;275.13;;
29200;SDS011;16244;51.956;12.980;2022-07-04T08:26:41;22.23;;;4.10;;
29200;SDS011;16244;51.956;12.980;2022-07-04T08:29:09;79.83;;;71.90;;
29200;SDS011;16244;51.956;12.980;2022-07-04T08:31:36;17.43;;;1.50;;
29200;SDS011;16244;51.956;12.980;2022-07-04T08:34:03;22.20;;;2.30;;
29200;SDS011;16244;51.956;12.980;2022-07-04T08:36:30;16.33;;;0.90;;
29200;SDS011;16244;51.956;12.980;2022-07-04T08:38:57;15.77;;;1.10;;
29200;SDS011;16244;51.956;12.980;2022-07-04T08:41:25;21.93;;;2.00;;
29200;SDS011;16244;51.956;12.980;2022-07-04T08:43:56;18.00;;;0.70;;
29200;SDS011;16244;51.956;12.980;2022-07-04T08:46:24;17.17;;;0.70;;
29200;SDS011;16244;51.956;12.980;2022-07-04T08:48:55;15.70;;;0.60;;
29200;SDS011;16244;51.956;12.980;2022-07-04T08:51:27;13.70;;;0.93;;
29200;SDS011;16244;51.956;12.980;2022-07-04T08:54:03;623.40;;;564.70;;
29200;SDS011;16244;51.956;12.980;2022-07-04T08:56:52;11.90;;;0.60;;
29200;SDS011;16244;51.956;12.980;2022-07-04T08:59:38;11.48;;;0.68;;
29200;SDS011;16244;51.956;12.980;2022-07-04T09:02:10;12.00;;;0.50;;
29200;SDS011;16244;51.956;12.980;2022-07-04T09:04:40;10.50;;;0.60;;
29200;SDS011;16244;51.956;12.980;2022-07-04T09:07:09;10.88;;;0.60;;
29200;SDS011;16244;51.956;12.980;2022-07-04T09:09:37;12.48;;;0.70;;
29200;SDS011;16244;51.956;12.980;2022-07-04T09:12:06;14.27;;;0.80;;
29200;SDS011;16244;51.956;12.980;2022-07-04T09:14:34;16.98;;;0.88;;
29200;SDS011;16244;51.956;12.980;2022-07-04T09:17:03;15.85;;;0.70;;
29200;SDS011;16244;51.956;12.980;2022-07-04T09:19:31;11.00;;;0.60;;
29200;SDS011;16244;51.956;12.980;2022-07-04T09:22:02;12.07;;;0.60;;
29200;SDS011;16244;51.956;12.980;2022-07-04T09:24:46;12.02;;;0.70;;
29200;SDS011;16244;51.956;12.980;2022-07-04T09:29:58;23.27;;;1.05;;
29200;SDS011;16244;51.956;12.980;2022-07-04T09:35:13;10.00;;;0.80;;
29200;SDS011;16244;51.956;12.980;2022-07-04T09:37:43;10.50;;;0.80;;
29200;SDS011;16244;51.956;12.980;2022-07-04T09:40:20;14.35;;;0.88;;
29200;SDS011;16244;51.956;12.980;2022-07-04T09:42:49;11.88;;;0.80;;
29200;SDS011;16244;51.956;12.980;2022-07-04T09:45:17;13.23;;;0.80;;
29200;SDS011;16244;51.956;12.980;2022-07-04T09:47:47;13.70;;;0.93;;
29200;SDS011;16244;51.956;12.980;2022-07-04T09:50:15;17.83;;;3.90;;
29200;SDS011;16244;51.956;12.980;2022-07-04T09:52:45;14.05;;;0.93;;
29200;SDS011;16244;51.956;12.980;2022-07-04T09:55:19;14.40;;;1.13;;
29200;SDS011;16244;51.956;12.980;2022-07-04T09:57:48;12.20;;;0.68;;
29200;SDS011;16244;51.956;12.980;2022-07-04T10:00:16;11.15;;;0.70;;
29200;SDS011;16244;51.956;12.980;2022-07-04T10:02:44;12.35;;;0.80;;
29200;SDS011;16244;51.956;12.980;2022-07-04T10:05:14;13.40;;;0.80;;
29200;SDS011;16244;51.956;12.980;2022-07-04T10:07:46;11.30;;;0.80;;
29200;SDS011;16244;51.956;12.980;2022-07-04T10:10:23;10.93;;;0.73;;
29200;SDS011;16244;51.956;12.980;2022-07-04T10:12:52;13.60;;;0.95;;
29200;SDS011;16244;51.956;12.980;2022-07-04T10:15:21;13.13;;;0.70;;
29200;SDS011;16244;51.956;12.980;2022-07-04T10:17:48;16.05;;;1.00;;
29200;SDS011;16244;51.956;12.980;2022-07-04T10:20:17;13.13;;;0.73;;
29200;SDS011;16244;51.956;12.980;2022-07-04T10:22:44;12.73;;;0.82;;
29200;SDS011;16244;51.956;12.980;2022-07-04T10:25:13;12.07;;;0.70;;
29200;SDS011;16244;51.956;12.980;2022-07-04T10:27:40;28.50;;;0.82;;
29200;SDS011;16244;51.956;12.980;2022-07-04T10:30:09;15.10;;;0.95;;
29200;SDS011;16244;51.956;12.980;2022-07-04T10:32:40;14.25;;;1.08;;
29200;SDS011;16244;51.956;12.980;2022-07-04T10:35:12;16.25;;;0.60;;
29200;SDS011;16244;51.956;12.980;2022-07-04T10:38:01;11.77;;;0.70;;
29200;SDS011;16244;51.956;12.980;2022-07-04T10:40:39;45.97;;;1.98;;
29200;SDS011;16244;51.956;12.980;2022-07-04T10:48:49;155.13;;;5.75;;
29200;SDS011;16244;51.956;12.980;2022-07-04T10:51:22;67.30;;;3.00;;
29200;SDS011;16244;51.956;12.980;2022-07-04T10:54:02;355.02;;;23.63;;
29200;SDS011;16244;51.956;12.980;2022-07-04T10:56:34;16.77;;;1.45;;
29200;SDS011;16244;51.956;12.980;2022-07-04T10:59:06;18.00;;;0.70;;
29200;SDS011;16244;51.956;12.980;2022-07-04T11:01:35;12.40;;;0.90;;
29200;SDS011;16244;51.956;12.980;2022-07-04T11:04:02;13.70;;;0.90;;
29200;SDS011;16244;51.956;12.980;2022-07-04T11:09:22;10.40;;;0.93;;
29200;SDS011;16244;51.956;12.980;2022-07-04T11:11:50;11.77;;;0.70;;
29200;SDS011;16244;51.956;12.980;2022-07-04T11:14:37;12.02;;;0.65;;
29200;SDS011;16244;51.956;12.980;2022-07-04T11:17:05;10.27;;;0.60;;
29200;SDS011;16244;51.956;12.980;2022-07-04T11:19:34;15.43;;;0.65;;
29200;SDS011;16244;51.956;12.980;2022-07-04T11:22:01;13.30;;;0.70;;
29200;SDS011;16244;51.956;12.980;2022-07-04T11:24:32;8.43;;;0.60;;
29200;SDS011;16244;51.956;12.980;2022-07-04T11:26:59;12.55;;;1.13;;
29200;SDS011;16244;51.956;12.980;2022-07-04T11:29:27;14.68;;;1.67;;
29200;SDS011;16244;51.956;12.980;2022-07-04T11:31:54;12.18;;;1.20;;
29200;SDS011;16244;51.956;12.980;2022-07-04T11:34:23;8.10;;;0.60;;
29200;SDS011;16244;51.956;12.980;2022-07-04T11:36:50;7.07;;;0.60;;
29200;SDS011;16244;51.956;12.980;2022-07-04T11:39:19;9.38;;;0.70;;
29200;SDS011;16244;51.956;12.980;2022-07-04T11:41:49;16.42;;;1.98;;
29200;SDS011;16244;51.956;12.980;2022-07-04T11:44:36;7.53;;;0.70;;
29200;SDS011;16244;51.956;12.980;2022-07-04T11:47:22;10.02;;;0.70;;
29200;SDS011;16244;51.956;12.980;2022-07-04T11:49:51;6.82;;;0.80;;
29200;SDS011;16244;51.956;12.980;2022-07-04T11:52:19;6.50;;;0.63;;
29200;SDS011;16244;51.956;12.980;2022-07-04T11:54:48;7.88;;;0.70;;
29200;SDS011;16244;51.956;12.980;2022-07-04T11:57:18;8.65;;;0.65;;
29200;SDS011;16244;51.956;12.980;2022-07-04T11:59:51;10.35;;;0.70;;
29200;SDS011;16244;51.956;12.980;2022-07-04T12:02:23;14.45;;;1.00;;
29200;SDS011;16244;51.956;12.980;2022-07-04T12:04:52;16.38;;;0.98;;
29200;SDS011;16244;51.956;12.980;2022-07-04T12:07:20;11.48;;;0.60;;
29200;SDS011;16244;51.956;12.980;2022-07-04T12:09:49;16.92;;;0.80;;
29200;SDS011;16244;51.956;12.980;2022-07-04T12:12:16;12.30;;;0.73;;
29200;SDS011;16244;51.956;12.980;2022-07-04T12:15:02;9.65;;;0.60;;
29200;SDS011;16244;51.956;12.980;2022-07-04T12:17:32;7.38;;;0.55;;
29200;SDS011;16244;51.956;12.980;2022-07-04T12:20:02;7.70;;;0.52;;
29200;SDS011;16244;51.956;12.980;2022-07-04T12:22:37;8.82;;;0.60;;
29200;SDS011;16244;51.956;12.980;2022-07-04T12:25:06;7.05;;;0.52;;
29200;SDS011;16244;51.956;12.980;2022-07-04T12:27:52;12.30;;;0.82;;
29200;SDS011;16244;51.956;12.980;2022-07-04T12:30:20;8.27;;;0.70;;
29200;SDS011;16244;51.956;12.980;2022-07-04T12:32:49;9.50;;;0.63;;
29200;SDS011;16244;51.956;12.980;2022-07-04T12:35:33;9.10;;;0.60;;
29200;SDS011;16244;51.956;12.980;2022-07-04T12:38:02;8.23;;;0.60;;
29200;SDS011;16244;51.956;12.980;2022-07-04T12:40:30;21.23;;;1.48;;
29200;SDS011;16244;51.956;12.980;2022-07-04T12:42:59;7.18;;;0.70;;
29200;SDS011;16244;51.956;12.980;2022-07-04T12:45:26;4.82;;;0.60;;
29200;SDS011;16244;51.956;12.980;2022-07-04T12:48:15;11.65;;;1.90;;
29200;SDS011;16244;51.956;12.980;2022-07-04T12:50:42;4.47;;;0.70;;
29200;SDS011;16244;51.956;12.980;2022-07-04T12:53:10;7.82;;;0.77;;
29200;SDS011;16244;51.956;12.980;2022-07-04T12:55:37;8.45;;;0.70;;
29200;SDS011;16244;51.956;12.980;2022-07-04T12:58:06;12.77;;;0.70;;
29200;SDS011;16244;51.956;12.980;2022-07-04T13:00:33;8.52;;;0.60;;
29200;SDS011;16244;51.956;12.980;2022-07-04T13:03:01;11.35;;;1.15;;
29200;SDS011;16244;51.956;12.980;2022-07-04T13:05:28;8.15;;;0.68;;
29200;SDS011;16244;51.956;12.980;2022-07-04T13:07:55;7.53;;;0.60;;
29200;SDS011;16244;51.956;12.980;2022-07-04T13:10:22;8.55;;;1.48;;
29200;SDS011;16244;51.956;12.980;2022-07-04T13:12:50;10.52;;;0.60;;
29200;SDS011;16244;51.956;12.980;2022-07-04T13:15:19;7.80;;;0.80;;
29200;SDS011;16244;51.956;12.980;2022-07-04T13:17:48;7.18;;;0.50;;
29200;SDS011;16244;51.956;12.980;2022-07-04T13:20:15;2.58;;;0.50;;
29200;SDS011;16244;51.956;12.980;2022-07-04T13:22:43;3.83;;;0.50;;
29200;SDS011;16244;51.956;12.980;2022-07-04T13:25:12;5.97;;;0.68;;
29200;SDS011;16244;51.956;12.980;2022-07-04T13:27:39;3.63;;;0.60;;
29200;SDS011;16244;51.956;12.980;2022-07-04T13:30:06;2.72;;;0.50;;
29200;SDS011;16244;51.956;12.980;2022-07-04T13:32:36;12.35;;;0.60;;
29200;SDS011;16244;51.956;12.980;2022-07-04T13:35:03;72.13;;;3.78;;
29200;SDS011;16244;51.956;12.980;2022-07-04T13:37:31;8.20;;;0.60;;
29200;SDS011;16244;51.956;12.980;2022-07-04T13:39:58;6.15;;;0.50;;
29200;SDS011;16244;51.956;12.980;2022-07-04T13:42:26;10.50;;;0.70;;
29200;SDS011;16244;51.956;12.980;2022-07-04T13:45:11;5.80;;;0.60;;
29200;SDS011;16244;51.956;12.980;2022-07-04T13:47:41;2.97;;;0.50;;
29200;SDS011;16244;51.956;12.980;2022-07-04T13:50:08;4.50;;;0.60;;
29200;SDS011;16244;51.956;12.980;2022-07-04T13:52:36;4.65;;;0.60;;
29200;SDS011;16244;51.956;12.980;2022-07-04T13:55:03;1.67;;;0.50;;
29200;SDS011;16244;51.956;12.980;2022-07-04T13:57:31;4.53;;;0.50;;
29200;SDS011;16244;51.956;12.980;2022-07-04T13:59:58;1.30;;;0.40;;
29200;SDS011;16244;51.956;12.980;2022-07-04T14:02:25;2.72;;;0.50;;
29200;SDS011;16244;51.956;12.980;2022-07-04T14:04:54;3.20;;;0.60;;
29200;SDS011;16244;51.956;12.980;2022-07-04T14:07:21;1.92;;;0.50;;
29200;SDS011;16244;51.956;12.980;2022-07-04T14:09:48;5.75;;;0.50;;
29200;SDS011;16244;51.956;12.980;2022-07-04T14:12:15;2.22;;;0.70;;
29200;SDS011;16244;51.956;12.980;2022-07-04T14:14:43;3.17;;;0.65;;
29200;SDS011;16244;51.956;12.980;2022-07-04T14:17:10;4.40;;;0.80;;
29200;SDS011;16244;51.956;12.980;2022-07-04T14:19:38;2.10;;;0.52;;
29200;SDS011;16244;51.956;12.980;2022-07-04T14:22:06;8.48;;;0.60;;
29200;SDS011;16244;51.956;12.980;2022-07-04T14:24:34;2.20;;;0.50;;
29200;SDS011;16244;51.956;12.980;2022-07-04T14:27:01;16.13;;;0.50;;
29200;SDS011;16244;51.956;12.980;2022-07-04T14:29:28;2.35;;;0.60;;
29200;SDS011;16244;51.956;12.980;2022-07-04T14:31:56;2.35;;;0.50;;
29200;SDS011;16244;51.956;12.980;2022-07-04T14:34:23;1.92;;;0.60;;
29200;SDS011;16244;51.956;12.980;2022-07-04T14:36:50;3.65;;;0.50;;
29200;SDS011;16244;51.956;12.980;2022-07-04T14:39:19;1.92;;;0.50;;
29200;SDS011;16244;51.956;12.980;2022-07-04T14:41:46;3.35;;;0.50;;